Time;durP1;ratioP1;P1;durP2;ratioP2;P2;SDS_P1;SDS_P2;PMS_P1;PMS_P2;Temp;Humidity;BMP_temperature;BMP_pressure;BME280_temperature;BME280_humidity;BME280_pressure;Samples;Min_cycle;Max_cycle;Signal;HPM_P1;HPM_P2
2024/04/21 00:02:42;;;;;;;;;;;;;;;;;;6827090;26;19924;-60
2024/04/21 00:05:48;;;;;;;;;;;;;;;;;;6826367;26;19931;-60
2024/04/21 00:08:50;;;;;;;;;;;;;;;;;;6826111;26;19996;-60
2024/04/21 00:11:55;;;;;;;;;;;;;;;;;;6855028;25;19924;-60
2024/04/21 00:15:01;;;;;;;;;;;;;;;;;;6872240;25;19954;-61
2024/04/21 00:18:07;;;;;;;;;;;;;;;;;;6871377;25;20018;-60
2024/04/21 00:21:14;;;;;;;;;;;;;;;;;;6869904;25;20121;-60
2024/04/21 00:24:19;;;;;;;;;;;;;;;;;;6850819;25;19931;-60
2024/04/21 00:27:21;;;;;;;;;;;;;;;;;;6826563;26;19947;-60
2024/04/21 00:30:30;;;;;;;;;;;;;;;;;;6826022;26;19924;-60
2024/04/21 00:33:32;;;;;;;;;;;;;;;;;;6825789;26;20018;-60
2024/04/21 00:36:38;;;;;;;;;;;;;;;;;;6826157;26;19931;-60
2024/04/21 00:39:40;;;;;;;;;;;;;;;;;;6825253;26;20611;-60
2024/04/21 00:42:45;;;;;;;;;;;;;;;;;;6824551;26;19927;-60
2024/04/21 00:45:51;;;;;;;;;;;;;;;;;;6825461;26;19924;-60
2024/04/21 00:48:56;;;;;;;;;;;;;;;;;;6825231;26;19924;-60
2024/04/21 00:51:59;;;;;;;;;;;;;;;;;;6825317;26;20024;-60
2024/04/21 00:55:04;;;;;;;;;;;;;;;;;;6825414;26;19935;-60
2024/04/21 00:58:07;;;;;;;;;;;;;;;;;;6823611;26;20481;-60
2024/04/21 01:01:15;;;;;;;;;;;;;;;;;;6824821;26;19931;-61
2024/04/21 01:04:20;;;;;;;;;;;;;;;;;;6824033;26;20005;-59
2024/04/21 01:07:23;;;;;;;;;;;;;;;;;;6825488;26;19927;-60
2024/04/21 01:10:28;;;;;;;;;;;;;;;;;;6826150;25;19924;-60
2024/04/21 01:13:33;;;;;;;;;;;;;;;;;;6821144;26;19924;-60
2024/04/21 01:16:38;;;;;;;;;;;;;;;;;;6824875;26;19928;-60
2024/04/21 01:19:44;;;;;;;;;;;;;;;;;;6824417;26;20002;-60
2024/04/21 01:22:49;;;;;;;;;;;;;;;;;;6824273;26;19954;-60
2024/04/21 01:25:54;;;;;;;;;;;;;;;;;;6869740;25;20577;-60
2024/04/21 01:28:57;;;;;;;;;;;;;;;;;;6870303;25;19980;-60
2024/04/21 01:32:02;;;;;;;;;;;;;;;;;;6870478;25;19923;-60
2024/04/21 01:35:05;;;;;;;;;;;;;;;;;;6869969;25;20057;-60
2024/04/21 01:38:13;;;;;;;;;;;;;;;;;;6869755;25;19924;-60
2024/04/21 01:41:15;;;;;;;;;;;;;;;;;;6869981;25;19928;-60
2024/04/21 01:44:21;;;;;;;;;;;;;;;;;;6870085;25;19946;-61
2024/04/21 01:47:23;;;;;;;;;;;;;;;;;;6858861;25;19961;-60
2024/04/21 01:50:29;;;;;;;;;;;;;;;;;;6870050;25;19924;-59
2024/04/21 01:53:36;;;;;;;;;;;;;;;;;;6868103;25;19952;-60
2024/04/21 01:56:39;;;;;;;;;;;;;;;;;;6870421;25;19924;-59
2024/04/21 01:59:44;;;;;;;;;;;;;;;;;;6869083;25;19923;-60
2024/04/21 02:02:47;;;;;;;;;;;;;;;;;;6870078;25;19930;-59
2024/04/21 02:05:52;;;;;;;;;;;;;;;;;;6870155;25;20024;-59
2024/04/21 02:08:58;;;;;;;;;;;;;;;;;;6869349;25;19923;-59
2024/04/21 02:12:03;;;;;;;;;;;;;;;;;;6833356;25;19931;-60
2024/04/21 02:15:06;;;;;;;;;;;;;;;;;;6782682;26;19932;-60
2024/04/21 02:18:11;;;;;;;;;;;;;;;;;;6828186;26;19928;-60
2024/04/21 02:21:14;;;;;;;;;;;;;;;;;;6798705;26;19925;-60
2024/04/21 02:24:23;;;;;;;;;;;;;;;;;;6832761;26;20113;-60
2024/04/21 02:27:25;;;;;;;;;;;;;;;;;;6862509;25;19931;-60
2024/04/21 02:30:30;;;;;;;;;;;;;;;;;;6873921;25;19929;-61
2024/04/21 02:33:33;;;;;;;;;;;;;;;;;;6873963;25;20467;-60
2024/04/21 02:36:38;;;;;;;;;;;;;;;;;;6874162;25;19927;-60
2024/04/21 02:39:44;;;;;;;;;;;;;;;;;;6872222;25;20019;-60
2024/04/21 02:42:49;;;;;;;;;;;;;;;;;;6873257;25;20022;-60
2024/04/21 02:45:51;;;;;;;;;;;;;;;;;;6873709;25;19924;-60
2024/04/21 02:48:57;;;;;;;;;;;;;;;;;;6873075;25;19923;-60
2024/04/21 02:52:02;;;;;;;;;;;;;;;;;;6872422;25;20146;-61
2024/04/21 02:55:07;;;;;;;;;;;;;;;;;;6871645;25;20025;-60
2024/04/21 02:58:13;;;;;;;;;;;;;;;;;;6872142;25;19930;-60
2024/04/21 03:01:15;;;;;;;;;;;;;;;;;;6852603;26;19924;-61
2024/04/21 03:04:21;;;;;;;;;;;;;;;;;;6838797;25;19924;-61
2024/04/21 03:07:23;;;;;;;;;;;;;;;;;;6842024;25;19955;-60
2024/04/21 03:10:31;;;;;;;;;;;;;;;;;;6839214;25;19924;-60
2024/04/21 03:13:34;;;;;;;;;;;;;;;;;;6872298;25;19939;-60
2024/04/21 03:16:39;;;;;;;;;;;;;;;;;;6873339;25;19923;-61
2024/04/21 03:19:42;;;;;;;;;;;;;;;;;;6847541;26;19992;-60
2024/04/21 03:22:47;;;;;;;;;;;;;;;;;;6826435;26;20122;-61
2024/04/21 03:25:55;;;;;;;;;;;;;;;;;;6782206;26;19940;-61
2024/04/21 03:28:58;;;;;;;;;;;;;;;;;;6826759;26;19924;-60
2024/04/21 03:32:03;;;;;;;;;;;;;;;;;;6827510;26;19931;-60
2024/04/21 03:35:06;;;;;;;;;;;;;;;;;;6826585;26;19924;-60
2024/04/21 03:38:11;;;;;;;;;;;;;;;;;;6855503;25;19923;-60
2024/04/21 03:41:19;;;;;;;;;;;;;;;;;;6872914;25;20009;-60
2024/04/21 03:44:25;;;;;;;;;;;;;;;;;;6872680;25;19930;-60
2024/04/21 03:47:30;;;;;;;;;;;;;;;;;;6872639;25;19923;-60
2024/04/21 03:50:33;;;;;;;;;;;;;;;;;;6871268;25;19927;-61
2024/04/21 03:53:38;;;;;;;;;;;;;;;;;;6872229;25;20024;-60
2024/04/21 03:56:43;;;;;;;;;;;;;;;;;;6871148;25;20117;-60
2024/04/21 03:59:48;;;;;;;;;;;;;;;;;;6871678;25;19924;-60
2024/04/21 04:02:54;;;;;;;;;;;;;;;;;;6872142;25;19931;-60
2024/04/21 04:05:56;;;;;;;;;;;;;;;;;;6872823;25;19930;-61
2024/04/21 04:09:01;;;;;;;;;;;;;;;;;;6872007;25;20128;-59
2024/04/21 04:12:07;;;;;;;;;;;;;;;;;;6831073;25;19924;-61
2024/04/21 04:15:13;;;;;;;;;;;;;;;;;;6825631;26;19947;-60
2024/04/21 04:18:15;;;;;;;;;;;;;;;;;;6825729;26;20313;-60
2024/04/21 04:21:20;;;;;;;;;;;;;;;;;;6826356;26;19931;-61
2024/04/21 04:24:23;;;;;;;;;;;;;;;;;;6847141;25;19923;-60
2024/04/21 04:27:31;;;;;;;;;;;;;;;;;;6873313;25;19953;-60
2024/04/21 04:30:33;;;;;;;;;;;;;;;;;;6872057;25;19927;-61
2024/04/21 04:33:39;;;;;;;;;;;;;;;;;;6870283;25;19928;-60
2024/04/21 04:36:42;;;;;;;;;;;;;;;;;;6871143;25;20101;-60
2024/04/21 04:39:47;;;;;;;;;;;;;;;;;;6871060;25;20128;-61
2024/04/21 04:42:52;;;;;;;;;;;;;;;;;;6871268;25;20713;-60
2024/04/21 04:45:57;;;;;;;;;;;;;;;;;;6871830;25;20024;-60
2024/04/21 04:49:00;;;;;;;;;;;;;;;;;;6858777;25;19923;-60
2024/04/21 04:52:06;;;;;;;;;;;;;;;;;;6872514;25;20122;-61
2024/04/21 04:55:08;;;;;;;;;;;;;;;;;;6871142;25;20029;-60
2024/04/21 04:58:17;;;;;;;;;;;;;;;;;;6870600;25;19930;-60
2024/04/21 05:01:20;;;;;;;;;;;;;;;;;;6855619;25;19930;-61
2024/04/21 05:04:25;;;;;;;;;;;;;;;;;;6839431;25;19924;-60
2024/04/21 05:07:28;;;;;;;;;;;;;;;;;;6871107;25;19951;-60
2024/04/21 05:10:33;;;;;;;;;;;;;;;;;;6851165;26;19924;-60
2024/04/21 05:13:38;;;;;;;;;;;;;;;;;;6824209;26;20029;-61
2024/04/21 05:16:45;;;;;;;;;;;;;;;;;;6823640;26;19931;-61
2024/04/21 05:19:47;;;;;;;;;;;;;;;;;;6824074;26;19995;-61
2024/04/21 05:22:53;;;;;;;;;;;;;;;;;;6824542;26;20131;-61
2024/04/21 05:25:58;;;;;;;;;;;;;;;;;;6870829;25;19947;-61
2024/04/21 05:29:03;;;;;;;;;;;;;;;;;;6870535;25;19923;-60
2024/04/21 05:32:08;;;;;;;;;;;;;;;;;;6871925;25;20222;-61
2024/04/21 05:35:11;;;;;;;;;;;;;;;;;;6870972;25;19930;-61
2024/04/21 05:38:16;;;;;;;;;;;;;;;;;;6870448;25;19923;-60
2024/04/21 05:41:19;;;;;;;;;;;;;;;;;;6870579;25;19930;-60
2024/04/21 05:44:27;;;;;;;;;;;;;;;;;;6870022;25;19987;-60
2024/04/21 05:47:30;;;;;;;;;;;;;;;;;;6874599;25;20107;-60
2024/04/21 05:50:35;;;;;;;;;;;;;;;;;;6873958;25;19931;-60
2024/04/21 05:53:38;;;;;;;;;;;;;;;;;;6873763;25;20208;-60
2024/04/21 05:56:43;;;;;;;;;;;;;;;;;;6874386;25;19923;-60
2024/04/21 05:59:51;;;;;;;;;;;;;;;;;;6873364;25;20117;-59
2024/04/21 06:02:56;;;;;;;;;;;;;;;;;;6874115;25;19923;-61
2024/04/21 06:06:01;;;;;;;;;;;;;;;;;;6873744;25;20011;-59
2024/04/21 06:09:04;;;;;;;;;;;;;;;;;;6873468;25;19924;-60
2024/04/21 06:12:09;;;;;;;;;;;;;;;;;;6815975;26;19931;-59
2024/04/21 06:15:15;;;;;;;;;;;;;;;;;;6827897;26;19924;-62
2024/04/21 06:18:20;;;;;;;;;;;;;;;;;;6782791;26;19932;-60
2024/04/21 06:21:23;;;;;;;;;;;;;;;;;;6827827;26;19931;-61
2024/04/21 06:24:28;;;;;;;;;;;;;;;;;;6805511;26;19924;-60
2024/04/21 06:27:31;;;;;;;;;;;;;;;;;;6782994;26;20002;-60
2024/04/21 06:30:40;;;;;;;;;;;;;;;;;;6737715;26;19948;-60
2024/04/21 06:33:43;;;;;;;;;;;;;;;;;;6737982;26;19925;-60
2024/04/21 06:36:48;;;;;;;;;;;;;;;;;;6738924;26;20129;-60
2024/04/21 06:39:54;;;;;;;;;;;;;;;;;;6738028;26;20347;-60
2024/04/21 06:42:57;;;;;;;;;;;;;;;;;;6738090;26;19959;-60
2024/04/21 06:46:05;;;;;;;;;;;;;;;;;;6738217;26;20009;-61
2024/04/21 06:49:08;;;;;;;;;;;;;;;;;;6735953;26;19932;-60
2024/04/21 06:52:16;;;;;;;;;;;;;;;;;;6738500;26;19929;-60
2024/04/21 06:55:23;;;;;;;;;;;;;;;;;;6736386;26;19932;-60
2024/04/21 06:58:31;;;;;;;;;;;;;;;;;;6736763;26;19932;-60
2024/04/21 07:01:39;;;;;;;;;;;;;;;;;;6741445;26;19941;-61
2024/04/21 07:04:45;;;;;;;;;;;;;;;;;;6750927;26;19932;-60
2024/04/21 07:07:47;;;;;;;;;;;;;;;;;;6737909;26;20460;-61
2024/04/21 07:10:53;;;;;;;;;;;;;;;;;;6747069;26;19925;-59
2024/04/21 07:13:57;;;;;;;;;;;;;;;;;;6762781;26;19955;-61
2024/04/21 07:17:21;;;;;;;;;;;;;;;;;;6782660;26;19925;-61
2024/04/21 07:20:23;;;;;;;;;;;;;;;;;;6781964;26;19931;-61
2024/04/21 07:23:29;;;;;;;;;;;;;;;;;;6802023;26;19963;-61
2024/04/21 07:26:31;;;;;;;;;;;;;;;;;;6853959;26;19931;-60
2024/04/21 07:29:36;;;;;;;;;;;;;;;;;;6827487;26;19927;-61
2024/04/21 07:32:48;;;;;;;;;;;;;;;;;;6827402;26;20194;-60
2024/04/21 07:35:53;;;;;;;;;;;;;;;;;;6825324;26;19924;-60
2024/04/21 07:38:56;;;;;;;;;;;;;;;;;;6827234;26;19931;-60
2024/04/21 07:42:01;;;;;;;;;;;;;;;;;;6827952;26;20178;-59
2024/04/21 07:45:07;;;;;;;;;;;;;;;;;;6827407;26;19924;-60
2024/04/21 07:48:13;;;;;;;;;;;;;;;;;;6826786;26;19924;-60
2024/04/21 07:51:18;;;;;;;;;;;;;;;;;;6827000;26;20117;-59
2024/04/21 07:54:20;;;;;;;;;;;;;;;;;;6826536;26;19931;-61
2024/04/21 07:57:26;;;;;;;;;;;;;;;;;;6827894;26;19931;-61
2024/04/21 08:00:31;;;;;;;;;;;;;;;;;;6826414;26;20217;-59
2024/04/21 08:03:39;;;;;;;;;;;;;;;;;;6826688;26;19931;-60
2024/04/21 08:06:41;;;;;;;;;;;;;;;;;;6827523;26;20303;-60
2024/04/21 08:09:47;;;;;;;;;;;;;;;;;;6819796;26;20382;-60
2024/04/21 08:12:52;;;;;;;;;;;;;;;;;;6809696;26;19925;-60
2024/04/21 08:15:58;;;;;;;;;;;;;;;;;;6785570;26;20007;-59
2024/04/21 08:19:06;;;;;;;;;;;;;;;;;;6781075;26;20040;-60
2024/04/21 08:22:09;;;;;;;;;;;;;;;;;;6781645;26;19930;-62
2024/04/21 08:25:14;;;;;;;;;;;;;;;;;;6811761;26;19928;-60
2024/04/21 08:28:17;;;;;;;;;;;;;;;;;;6824454;26;19924;-60
2024/04/21 08:31:22;;;;;;;;;;;;;;;;;;6826438;26;19924;-60
2024/04/21 08:34:28;;;;;;;;;;;;;;;;;;6825181;26;19924;-62
2024/04/21 08:37:33;;;;;;;;;;;;;;;;;;6826064;26;20013;-59
2024/04/21 08:40:37;;;;;;;;;;;;;;;;;;6826410;26;19931;-62
2024/04/21 08:43:44;;;;;;;;;;;;;;;;;;6826942;26;19931;-61
2024/04/21 08:46:46;;;;;;;;;;;;;;;;;;6824665;26;20129;-60
2024/04/21 08:49:58;;;;;;;;;;;;;;;;;;6822689;26;19944;-61
2024/04/21 08:53:00;;;;;;;;;;;;;;;;;;6825363;26;19931;-61
2024/04/21 08:56:07;;;;;;;;;;;;;;;;;;6825250;26;19935;-61
2024/04/21 08:59:09;;;;;;;;;;;;;;;;;;6825022;26;20105;-60
2024/04/21 09:02:15;;;;;;;;;;;;;;;;;;6830123;26;20015;-60
2024/04/21 09:05:20;;;;;;;;;;;;;;;;;;6839776;26;20102;-60
2024/04/21 09:08:25;;;;;;;;;;;;;;;;;;6827007;26;19923;-61
2024/04/21 09:11:28;;;;;;;;;;;;;;;;;;6840571;26;19931;-59
2024/04/21 09:14:42;;;;;;;;;;;;;;;;;;6824816;26;20125;-60
2024/04/21 09:17:45;;;;;;;;;;;;;;;;;;6825452;26;19955;-60
2024/04/21 09:20:53;;;;;;;;;;;;;;;;;;6825700;26;19928;-60
2024/04/21 09:23:55;;;;;;;;;;;;;;;;;;6839957;26;19923;-60
2024/04/21 09:27:00;;;;;;;;;;;;;;;;;;6871717;25;20175;-61
2024/04/21 09:30:06;;;;;;;;;;;;;;;;;;6870244;25;20105;-60
2024/04/21 09:33:09;;;;;;;;;;;;;;;;;;6870470;25;20059;-60
2024/04/21 09:36:17;;;;;;;;;;;;;;;;;;6872501;25;20177;-60
2024/04/21 09:39:20;;;;;;;;;;;;;;;;;;6871229;25;19935;-60
2024/04/21 09:42:25;;;;;;;;;;;;;;;;;;6870204;25;19923;-60
2024/04/21 09:45:28;;;;;;;;;;;;;;;;;;6870024;25;19923;-60
2024/04/21 09:48:33;;;;;;;;;;;;;;;;;;6870648;25;19935;-61
2024/04/21 09:51:41;;;;;;;;;;;;;;;;;;6870820;25;19924;-60
2024/04/21 09:54:44;;;;;;;;;;;;;;;;;;6870010;25;19931;-59
2024/04/21 09:57:49;;;;;;;;;;;;;;;;;;6869579;25;19930;-59
2024/04/21 10:00:52;;;;;;;;;;;;;;;;;;6869903;25;20015;-60
2024/04/21 10:03:58;;;;;;;;;;;;;;;;;;6869364;25;19951;-60
2024/04/21 10:07:06;;;;;;;;;;;;;;;;;;6870085;25;19930;-60
2024/04/21 10:10:12;;;;;;;;;;;;;;;;;;6857809;25;19924;-61
2024/04/21 10:13:15;;;;;;;;;;;;;;;;;;6822722;26;19924;-61
2024/04/21 10:16:20;;;;;;;;;;;;;;;;;;6823642;26;19931;-60
2024/04/21 10:19:24;;;;;;;;;;;;;;;;;;6823284;26;19933;-60
2024/04/21 10:22:32;;;;;;;;;;;;;;;;;;6825298;26;19959;-61
2024/04/21 10:25:35;;;;;;;;;;;;;;;;;;6864178;25;20006;-61
2024/04/21 10:28:40;;;;;;;;;;;;;;;;;;6868690;25;19923;-61
2024/04/21 10:31:43;;;;;;;;;;;;;;;;;;6872151;25;20576;-60
2024/04/21 10:34:49;;;;;;;;;;;;;;;;;;6872951;25;19928;-60
2024/04/21 10:37:56;;;;;;;;;;;;;;;;;;6875334;25;19930;-61
2024/04/21 10:41:01;;;;;;;;;;;;;;;;;;6875189;25;19924;-61
2024/04/21 10:44:04;;;;;;;;;;;;;;;;;;6874379;25;20132;-60
2024/04/21 10:47:10;;;;;;;;;;;;;;;;;;6874785;25;19924;-60
2024/04/21 10:50:13;;;;;;;;;;;;;;;;;;6874203;25;19934;-61
2024/04/21 10:53:21;;;;;;;;;;;;;;;;;;6873745;25;19931;-61
2024/04/21 10:56:23;;;;;;;;;;;;;;;;;;6874363;25;19927;-61
2024/04/21 10:59:28;;;;;;;;;;;;;;;;;;6871844;25;19927;-61
2024/04/21 11:02:31;;;;;;;;;;;;;;;;;;6875176;25;19923;-60
2024/04/21 11:05:38;;;;;;;;;;;;;;;;;;6873801;25;19931;-60
2024/04/21 11:08:43;;;;;;;;;;;;;;;;;;6874370;25;19924;-60
2024/04/21 11:11:49;;;;;;;;;;;;;;;;;;6838869;25;19923;-60
2024/04/21 11:14:56;;;;;;;;;;;;;;;;;;6828369;26;20163;-60
2024/04/21 11:18:02;;;;;;;;;;;;;;;;;;6821132;26;19928;-60
2024/04/21 11:21:07;;;;;;;;;;;;;;;;;;6828524;25;20109;-59
2024/04/21 11:24:13;;;;;;;;;;;;;;;;;;6845582;26;20003;-60
2024/04/21 11:27:18;;;;;;;;;;;;;;;;;;6873633;25;19924;-61
2024/04/21 11:30:21;;;;;;;;;;;;;;;;;;6874318;25;19923;-62
2024/04/21 11:33:27;;;;;;;;;;;;;;;;;;6874254;25;19924;-62
2024/04/21 11:36:29;;;;;;;;;;;;;;;;;;6873923;25;19923;-62
2024/04/21 11:39:38;;;;;;;;;;;;;;;;;;6873060;25;19928;-60
2024/04/21 11:42:44;;;;;;;;;;;;;;;;;;6872468;25;19931;-60
2024/04/21 11:45:47;;;;;;;;;;;;;;;;;;6872791;25;19924;-61
2024/04/21 11:48:53;;;;;;;;;;;;;;;;;;6873245;25;19923;-61
2024/04/21 11:51:57;;;;;;;;;;;;;;;;;;6873087;25;19923;-61
2024/04/21 11:55:05;;;;;;;;;;;;;;;;;;6872749;25;19923;-61
2024/04/21 11:58:07;;;;;;;;;;;;;;;;;;6872671;25;19930;-61
2024/04/21 12:01:13;;;;;;;;;;;;;;;;;;6873626;25;20132;-60
2024/04/21 12:04:23;;;;;;;;;;;;;;;;;;6841550;25;19924;-61
2024/04/21 12:07:28;;;;;;;;;;;;;;;;;;6873991;25;20117;-60
2024/04/21 12:10:34;;;;;;;;;;;;;;;;;;6854550;25;20206;-59
2024/04/21 12:13:41;;;;;;;;;;;;;;;;;;6780574;26;19924;-60
2024/04/21 12:16:46;;;;;;;;;;;;;;;;;;6826068;26;19931;-61
2024/04/21 12:19:49;;;;;;;;;;;;;;;;;;6825948;26;19924;-60
2024/04/21 12:22:54;;;;;;;;;;;;;;;;;;6826009;26;19950;-60
2024/04/21 12:26:02;;;;;;;;;;;;;;;;;;6781823;26;19924;-63
2024/04/21 12:29:05;;;;;;;;;;;;;;;;;;6781308;26;19935;-61
2024/04/21 12:32:10;;;;;;;;;;;;;;;;;;6781849;26;19925;-60
2024/04/21 12:35:13;;;;;;;;;;;;;;;;;;6780698;26;19924;-61
2024/04/21 12:38:18;;;;;;;;;;;;;;;;;;6780673;26;20110;-61
2024/04/21 12:41:26;;;;;;;;;;;;;;;;;;6781011;26;20125;-60
2024/04/21 12:44:29;;;;;;;;;;;;;;;;;;6780328;26;19925;-62
2024/04/21 12:47:35;;;;;;;;;;;;;;;;;;6781373;26;19924;-61
2024/04/21 12:50:40;;;;;;;;;;;;;;;;;;6780729;26;19931;-60
2024/04/21 12:53:45;;;;;;;;;;;;;;;;;;6780446;26;19948;-60
2024/04/21 12:56:53;;;;;;;;;;;;;;;;;;6781266;26;19924;-60
2024/04/21 12:59:59;;;;;;;;;;;;;;;;;;6781063;26;20364;-62
2024/04/21 13:03:02;;;;;;;;;;;;;;;;;;6781170;26;20024;-61
2024/04/21 13:06:07;;;;;;;;;;;;;;;;;;6781737;26;20247;-61
2024/04/21 13:09:10;;;;;;;;;;;;;;;;;;6779913;26;19954;-60
2024/04/21 13:12:19;;;;;;;;;;;;;;;;;;6823454;26;19931;-61
2024/04/21 13:15:24;;;;;;;;;;;;;;;;;;6781834;26;19924;-61
2024/04/21 13:18:27;;;;;;;;;;;;;;;;;;6780992;26;19924;-61
2024/04/21 13:21:32;;;;;;;;;;;;;;;;;;6780886;26;20192;-61
2024/04/21 13:24:38;;;;;;;;;;;;;;;;;;6805065;26;20218;-60
2024/04/21 13:27:43;;;;;;;;;;;;;;;;;;6825277;26;19924;-61
2024/04/21 13:30:48;;;;;;;;;;;;;;;;;;6825227;26;20400;-61
2024/04/21 13:33:51;;;;;;;;;;;;;;;;;;6824398;26;20215;-61
2024/04/21 13:36:56;;;;;;;;;;;;;;;;;;6825878;26;20185;-62
2024/04/21 13:40:01;;;;;;;;;;;;;;;;;;6825133;26;20293;-61
2024/04/21 13:43:07;;;;;;;;;;;;;;;;;;6825014;26;20180;-60
2024/04/21 13:46:12;;;;;;;;;;;;;;;;;;6825441;26;20170;-60
2024/04/21 13:49:18;;;;;;;;;;;;;;;;;;6792175;26;19931;-61
2024/04/21 13:52:22;;;;;;;;;;;;;;;;;;6793303;26;19924;-61
2024/04/21 13:55:27;;;;;;;;;;;;;;;;;;6824721;26;19924;-62
2024/04/21 13:58:35;;;;;;;;;;;;;;;;;;6824569;26;19955;-61
2024/04/21 14:01:38;;;;;;;;;;;;;;;;;;6794144;26;19931;-62
2024/04/21 14:04:43;;;;;;;;;;;;;;;;;;6824898;26;19924;-61
2024/04/21 14:07:46;;;;;;;;;;;;;;;;;;6828868;26;19923;-61
2024/04/21 14:10:51;;;;;;;;;;;;;;;;;;6807615;26;20011;-60
2024/04/21 14:13:57;;;;;;;;;;;;;;;;;;6783284;26;19955;-60
2024/04/21 14:17:03;;;;;;;;;;;;;;;;;;6784515;26;20011;-61
2024/04/21 14:20:09;;;;;;;;;;;;;;;;;;6783766;26;19948;-61
2024/04/21 14:23:14;;;;;;;;;;;;;;;;;;6787523;26;19925;-61
2024/04/21 14:26:17;;;;;;;;;;;;;;;;;;6828934;26;20128;-60
2024/04/21 14:29:25;;;;;;;;;;;;;;;;;;6828413;26;19924;-61
2024/04/21 14:32:32;;;;;;;;;;;;;;;;;;6828746;26;19924;-60
2024/04/21 14:35:37;;;;;;;;;;;;;;;;;;6828744;26;19923;-61
2024/04/21 14:38:42;;;;;;;;;;;;;;;;;;6828016;26;19924;-60
2024/04/21 14:41:45;;;;;;;;;;;;;;;;;;6828631;26;20042;-62
2024/04/21 14:45:00;;;;;;;;;;;;;;;;;;6827734;26;19924;-61
2024/04/21 14:48:03;;;;;;;;;;;;;;;;;;6827793;26;20081;-61
2024/04/21 14:51:09;;;;;;;;;;;;;;;;;;6828298;26;19935;-61
2024/04/21 14:54:12;;;;;;;;;;;;;;;;;;6826211;26;20001;-61
2024/04/21 14:57:17;;;;;;;;;;;;;;;;;;6827587;26;19932;-61
2024/04/21 15:00:25;;;;;;;;;;;;;;;;;;6827049;26;20132;-61
2024/04/21 15:03:30;;;;;;;;;;;;;;;;;;6827078;26;20132;-61
2024/04/21 15:06:32;;;;;;;;;;;;;;;;;;6828234;26;19924;-60
2024/04/21 15:09:38;;;;;;;;;;;;;;;;;;6824667;26;20003;-63
2024/04/21 15:12:41;;;;;;;;;;;;;;;;;;6783212;26;19925;-60
2024/04/21 15:15:49;;;;;;;;;;;;;;;;;;6784018;26;20217;-62
2024/04/21 15:18:52;;;;;;;;;;;;;;;;;;6782740;26;19925;-61
2024/04/21 15:21:57;;;;;;;;;;;;;;;;;;6783503;26;20114;-60
2024/04/21 15:25:02;;;;;;;;;;;;;;;;;;6813758;26;19931;-62
2024/04/21 15:28:05;;;;;;;;;;;;;;;;;;6827600;26;20004;-60
2024/04/21 15:31:13;;;;;;;;;;;;;;;;;;6795311;26;19924;-60
2024/04/21 15:34:17;;;;;;;;;;;;;;;;;;6826560;26;19992;-61
2024/04/21 15:37:22;;;;;;;;;;;;;;;;;;6828035;26;19931;-59
2024/04/21 15:40:25;;;;;;;;;;;;;;;;;;6826737;26;20442;-59
2024/04/21 15:43:30;;;;;;;;;;;;;;;;;;6826583;26;19931;-60
2024/04/21 15:46:35;;;;;;;;;;;;;;;;;;6827511;26;19924;-60
2024/04/21 15:49:41;;;;;;;;;;;;;;;;;;6827649;26;19931;-60
2024/04/21 15:52:44;;;;;;;;;;;;;;;;;;6826985;26;20028;-61
2024/04/21 15:55:50;;;;;;;;;;;;;;;;;;6827225;26;20031;-62
2024/04/21 15:58:52;;;;;;;;;;;;;;;;;;6826941;26;19931;-61
2024/04/21 16:02:00;;;;;;;;;;;;;;;;;;6827284;26;19924;-60
2024/04/21 16:05:03;;;;;;;;;;;;;;;;;;6826851;26;19923;-61
2024/04/21 16:08:09;;;;;;;;;;;;;;;;;;6826019;26;19924;-60
2024/04/21 16:11:11;;;;;;;;;;;;;;;;;;6800019;26;19929;-60
2024/04/21 16:14:17;;;;;;;;;;;;;;;;;;6781072;26;19929;-60
2024/04/21 16:17:24;;;;;;;;;;;;;;;;;;6781994;26;19925;-60
2024/04/21 16:20:27;;;;;;;;;;;;;;;;;;6781855;26;19931;-61
2024/04/21 16:23:35;;;;;;;;;;;;;;;;;;6790840;26;19931;-60
2024/04/21 16:26:38;;;;;;;;;;;;;;;;;;6827112;26;19924;-61
2024/04/21 16:29:44;;;;;;;;;;;;;;;;;;6793988;26;19923;-60
2024/04/21 16:32:51;;;;;;;;;;;;;;;;;;6826992;26;19923;-63
2024/04/21 16:35:54;;;;;;;;;;;;;;;;;;6828069;26;19931;-62
2024/04/21 16:39:00;;;;;;;;;;;;;;;;;;6826553;26;19931;-61
2024/04/21 16:42:05;;;;;;;;;;;;;;;;;;6826279;26;20125;-61
2024/04/21 16:45:08;;;;;;;;;;;;;;;;;;6826261;26;20133;-61
2024/04/21 16:48:23;;;;;;;;;;;;;;;;;;6825842;26;19928;-62
2024/04/21 16:51:26;;;;;;;;;;;;;;;;;;6827311;26;19924;-61
2024/04/21 16:54:31;;;;;;;;;;;;;;;;;;6825594;26;20098;-60
2024/04/21 16:57:35;;;;;;;;;;;;;;;;;;6827751;26;20010;-61
2024/04/21 17:00:40;;;;;;;;;;;;;;;;;;6826538;26;19928;-62
2024/04/21 17:03:46;;;;;;;;;;;;;;;;;;6826288;26;19931;-61
2024/04/21 17:06:52;;;;;;;;;;;;;;;;;;6827002;26;19924;-61
2024/04/21 17:09:55;;;;;;;;;;;;;;;;;;6818227;26;19948;-61
2024/04/21 17:13:00;;;;;;;;;;;;;;;;;;6781042;26;20130;-61
2024/04/21 17:16:04;;;;;;;;;;;;;;;;;;6796167;26;19995;-62
2024/04/21 17:19:25;;;;;;;;;;;;;;;;;;6825280;26;19923;-62
2024/04/21 17:22:28;;;;;;;;;;;;;;;;;;6794394;26;19924;-61
2024/04/21 17:25:33;;;;;;;;;;;;;;;;;;6786288;26;20118;-60
2024/04/21 17:28:36;;;;;;;;;;;;;;;;;;6780611;26;20257;-61
2024/04/21 17:31:41;;;;;;;;;;;;;;;;;;6780274;26;19931;-60
2024/04/21 17:34:49;;;;;;;;;;;;;;;;;;6809733;26;20114;-62
2024/04/21 17:37:52;;;;;;;;;;;;;;;;;;6764081;26;20118;-60
2024/04/21 17:40:57;;;;;;;;;;;;;;;;;;6781812;26;19924;-61
2024/04/21 17:44:00;;;;;;;;;;;;;;;;;;6784284;26;19924;-60
2024/04/21 17:47:05;;;;;;;;;;;;;;;;;;6784981;26;19931;-60
2024/04/21 17:50:10;;;;;;;;;;;;;;;;;;6784965;26;19925;-59
2024/04/21 17:53:16;;;;;;;;;;;;;;;;;;6784648;26;19924;-60
2024/04/21 17:56:18;;;;;;;;;;;;;;;;;;6784225;26;19924;-59
2024/04/21 17:59:24;;;;;;;;;;;;;;;;;;6783290;26;20031;-61
2024/04/21 18:02:27;;;;;;;;;;;;;;;;;;6784212;26;19928;-61
2024/04/21 18:05:36;;;;;;;;;;;;;;;;;;6783924;26;19924;-62
2024/04/21 18:08:38;;;;;;;;;;;;;;;;;;6783820;26;20050;-62
2024/04/21 18:11:44;;;;;;;;;;;;;;;;;;6819295;26;20253;-59
2024/04/21 18:14:46;;;;;;;;;;;;;;;;;;6829235;26;20129;-60
2024/04/21 18:17:52;;;;;;;;;;;;;;;;;;6829995;26;19924;-60
2024/04/21 18:20:57;;;;;;;;;;;;;;;;;;6828990;26;19931;-60
2024/04/21 18:24:02;;;;;;;;;;;;;;;;;;6811883;26;19924;-60
2024/04/21 18:27:05;;;;;;;;;;;;;;;;;;6784433;26;19925;-60
2024/04/21 18:30:11;;;;;;;;;;;;;;;;;;6784347;26;19932;-60
2024/04/21 18:33:16;;;;;;;;;;;;;;;;;;6783648;26;19924;-60
2024/04/21 18:36:22;;;;;;;;;;;;;;;;;;6783575;26;19924;-60
2024/04/21 18:39:27;;;;;;;;;;;;;;;;;;6783681;26;19925;-61
2024/04/21 18:42:32;;;;;;;;;;;;;;;;;;6783873;26;19925;-61
2024/04/21 18:45:40;;;;;;;;;;;;;;;;;;6783524;26;20004;-61
2024/04/21 18:48:42;;;;;;;;;;;;;;;;;;6783198;26;19924;-61
2024/04/21 18:51:50;;;;;;;;;;;;;;;;;;6782775;26;19924;-61
2024/04/21 18:54:53;;;;;;;;;;;;;;;;;;6782637;26;20036;-61
2024/04/21 18:57:58;;;;;;;;;;;;;;;;;;6783567;26;19955;-61
2024/04/21 19:01:03;;;;;;;;;;;;;;;;;;6782488;26;20030;-61
2024/04/21 19:04:09;;;;;;;;;;;;;;;;;;6782588;26;20124;-60
2024/04/21 19:07:15;;;;;;;;;;;;;;;;;;6785093;26;20197;-62
2024/04/21 19:10:21;;;;;;;;;;;;;;;;;;6796544;26;20121;-61
2024/04/21 19:13:27;;;;;;;;;;;;;;;;;;6828937;26;19931;-60
2024/04/21 19:16:30;;;;;;;;;;;;;;;;;;6826312;26;19924;-62
2024/04/21 19:19:36;;;;;;;;;;;;;;;;;;6826395;26;19931;-61
2024/04/21 19:22:45;;;;;;;;;;;;;;;;;;6828364;26;19924;-61
2024/04/21 19:25:48;;;;;;;;;;;;;;;;;;6772636;26;20018;-60
2024/04/21 19:28:53;;;;;;;;;;;;;;;;;;6782663;26;19925;-61
2024/04/21 19:31:59;;;;;;;;;;;;;;;;;;6782503;26;19932;-60
2024/04/21 19:35:05;;;;;;;;;;;;;;;;;;6782314;26;19925;-61
2024/04/21 19:38:14;;;;;;;;;;;;;;;;;;6738207;26;19925;-61
2024/04/21 19:41:16;;;;;;;;;;;;;;;;;;6766178;26;19932;-62
2024/04/21 19:44:22;;;;;;;;;;;;;;;;;;6737893;26;19932;-61
2024/04/21 19:47:27;;;;;;;;;;;;;;;;;;6738081;26;19948;-61
2024/04/21 19:50:32;;;;;;;;;;;;;;;;;;6737845;26;20126;-62
2024/04/21 19:53:40;;;;;;;;;;;;;;;;;;6737972;26;19929;-61
2024/04/21 19:56:43;;;;;;;;;;;;;;;;;;6781723;26;19931;-61
2024/04/21 19:59:49;;;;;;;;;;;;;;;;;;6782307;26;19928;-60
2024/04/21 20:02:55;;;;;;;;;;;;;;;;;;6736929;26;19936;-61
2024/04/21 20:05:57;;;;;;;;;;;;;;;;;;6780712;26;20103;-60
2024/04/21 20:09:05;;;;;;;;;;;;;;;;;;6781772;26;19924;-61
2024/04/21 20:12:11;;;;;;;;;;;;;;;;;;6781916;26;19932;-60
2024/04/21 20:18:43;;;;;;;;;;;;;;;;;;6698971;26;19932;-62
2024/04/21 20:21:48;;;;;;;;;;;;;;;;;;6736181;26;19964;-61
2024/04/21 20:24:56;;;;;;;;;;;;;;;;;;6801753;26;19932;-60
2024/04/21 20:28:01;;;;;;;;;;;;;;;;;;6827083;26;20094;-60
2024/04/21 20:31:09;;;;;;;;;;;;;;;;;;6826421;26;19931;-60
2024/04/21 20:34:14;;;;;;;;;;;;;;;;;;6826180;26;19924;-61
2024/04/21 20:37:17;;;;;;;;;;;;;;;;;;6826901;26;20021;-60
2024/04/21 20:40:25;;;;;;;;;;;;;;;;;;6826097;26;19931;-60
2024/04/21 20:43:27;;;;;;;;;;;;;;;;;;6827547;26;19931;-61
2024/04/21 20:46:33;;;;;;;;;;;;;;;;;;6826487;26;19935;-61
2024/04/21 20:49:35;;;;;;;;;;;;;;;;;;6826380;26;19935;-60
2024/04/21 20:52:41;;;;;;;;;;;;;;;;;;6826878;26;19931;-60
2024/04/21 20:55:49;;;;;;;;;;;;;;;;;;6826351;26;19924;-60
2024/04/21 20:58:51;;;;;;;;;;;;;;;;;;6826482;26;20056;-62
2024/04/21 21:01:58;;;;;;;;;;;;;;;;;;6826972;26;20117;-62
2024/04/21 21:05:03;;;;;;;;;;;;;;;;;;6826537;26;20007;-60
2024/04/21 21:08:06;;;;;;;;;;;;;;;;;;6826748;26;20093;-61